KLAF/LAF METAR and TAF weather

Enter ICAO airport designator
Station Type Date Time Source
KLAF METAR 2021/03/09 09:54 UTC NOAA

KLAF 090954Z AUTO 00000KT 10SM CLR 07/00 A3033 RMK AO2 SLP270 T00670000


Station Type Date Time Source
KLAF Decoded METAR 2021/03/09 09:54 UTC NOAA

LAFAYETTE PURDUE UNIV AIRPORT , IN, United States (KLAF) 40-25N 86-57W 182M
Mar 09, 2021 - 04:54 AM EST / 2021.03.09 0954 UTC
Wind: Calm:0
Visibility: 10 mile(s):0
Sky conditions: clear
Temperature: 44.1 F (6.7 C)
Dew Point: 32.0 F (0.0 C)
Relative Humidity: 62%
Pressure (altimeter): 30.33 in. Hg (1027 hPa)
ob: KLAF 090954Z AUTO 00000KT 10SM CLR 07/00 A3033 RMK AO2 SLP270 T00670000
cycle: 10

Station Type Date Time Source
KLAF TAF 2021/03/09 06:22 UTC NOAA

TAF KLAF 090520Z 0906/1006 21007KT P6SM SCT250
FM091500 20012KT P6SM SCT200
FM091900 20014G22KT P6SM SCT250
FM100200 18010G20KT P6SM SCT200 WS020/20040KT
AMD LTD TO CLD VIS AND WIND TIL 091400

Example: see airport list